sensor_id;sensor_type;location;lat;lon;timestamp;pressure;altitude;pressure_sealevel;temperature;humidity
71805;BME280;59654;52.216;5.616;2023-05-10T00:00:16;100608.44;;;12.33;98.86
71805;BME280;59654;52.216;5.616;2023-05-10T00:00:47;100611.97;;;12.33;98.74
71805;BME280;59654;52.216;5.616;2023-05-10T00:01:18;100611.09;;;12.33;98.44
71805;BME280;59654;52.216;5.616;2023-05-10T00:01:49;100617.31;;;12.33;98.59
71805;BME280;59654;52.216;5.616;2023-05-10T00:02:20;100603.94;;;12.33;98.05
71805;BME280;59654;52.216;5.616;2023-05-10T00:02:51;100608.44;;;12.33;98.68
71805;BME280;59654;52.216;5.616;2023-05-10T00:03:22;100606.63;;;12.33;98.57
71805;BME280;59654;52.216;5.616;2023-05-10T00:03:53;100611.97;;;12.33;97.96
71805;BME280;59654;52.216;5.616;2023-05-10T00:04:24;100611.03;;;12.34;98.76
71805;BME280;59654;52.216;5.616;2023-05-10T00:04:57;100610.16;;;12.34;98.78
71805;BME280;59654;52.216;5.616;2023-05-10T00:05:28;100614.56;;;12.35;98.68
71805;BME280;59654;52.216;5.616;2023-05-10T00:05:59;100609.28;;;12.33;98.61
71805;BME280;59654;52.216;5.616;2023-05-10T00:06:30;100609.22;;;12.35;98.70
71805;BME280;59654;52.216;5.616;2023-05-10T00:07:01;100603.09;;;12.33;98.78
71805;BME280;59654;52.216;5.616;2023-05-10T00:07:32;100616.38;;;12.34;98.30
71805;BME280;59654;52.216;5.616;2023-05-10T00:08:03;100608.34;;;12.34;98.70
71805;BME280;59654;52.216;5.616;2023-05-10T00:08:34;100603.09;;;12.33;98.04
71805;BME280;59654;52.216;5.616;2023-05-10T00:09:05;100611.91;;;12.35;97.93
71805;BME280;59654;52.216;5.616;2023-05-10T00:09:36;100605.69;;;12.34;98.13
71805;BME280;59654;52.216;5.616;2023-05-10T00:10:07;100601.28;;;12.33;98.42
71805;BME280;59654;52.216;5.616;2023-05-10T00:10:38;100602.16;;;12.34;97.95
71805;BME280;59654;52.216;5.616;2023-05-10T00:11:09;100602.16;;;12.34;98.19
71805;BME280;59654;52.216;5.616;2023-05-10T00:11:40;100595.84;;;12.35;98.32
71805;BME280;59654;52.216;5.616;2023-05-10T00:12:11;100594.13;;;12.34;97.74
71805;BME280;59654;52.216;5.616;2023-05-10T00:12:42;100597.66;;;12.34;97.69
71805;BME280;59654;52.216;5.616;2023-05-10T00:13:13;100599.47;;;12.34;98.15
71805;BME280;59654;52.216;5.616;2023-05-10T00:13:44;100609.28;;;12.33;97.65
71805;BME280;59654;52.216;5.616;2023-05-10T00:14:15;100603.09;;;12.33;97.93
71805;BME280;59654;52.216;5.616;2023-05-10T00:14:45;100597.72;;;12.33;97.61
71805;BME280;59654;52.216;5.616;2023-05-10T00:15:16;100600.41;;;12.33;98.41
71805;BME280;59654;52.216;5.616;2023-05-10T00:15:47;100601.34;;;12.32;98.42
71805;BME280;59654;52.216;5.616;2023-05-10T00:16:18;100597.72;;;12.33;98.70
71805;BME280;59654;52.216;5.616;2023-05-10T00:16:49;100602.22;;;12.32;97.71
71805;BME280;59654;52.216;5.616;2023-05-10T00:17:20;100598.69;;;12.32;98.36
71805;BME280;59654;52.216;5.616;2023-05-10T00:17:50;100599.53;;;12.32;98.55
71805;BME280;59654;52.216;5.616;2023-05-10T00:18:21;100597.81;;;12.31;98.30
71805;BME280;59654;52.216;5.616;2023-05-10T00:18:52;100606.69;;;12.32;98.86
71805;BME280;59654;52.216;5.616;2023-05-10T00:19:23;100604.88;;;12.32;97.42
71805;BME280;59654;52.216;5.616;2023-05-10T00:19:54;100603.16;;;12.31;98.38
71805;BME280;59654;52.216;5.616;2023-05-10T00:20:25;100604.03;;;12.32;98.59
71805;BME280;59654;52.216;5.616;2023-05-10T00:20:56;100602.28;;;12.31;98.51
71805;BME280;59654;52.216;5.616;2023-05-10T00:21:29;100596.00;;;12.32;97.86
71805;BME280;59654;52.216;5.616;2023-05-10T00:22:02;100596.00;;;12.32;98.17
71805;BME280;59654;52.216;5.616;2023-05-10T00:22:34;100604.03;;;12.32;98.52
71805;BME280;59654;52.216;5.616;2023-05-10T00:23:05;100596.88;;;12.32;98.17
71805;BME280;59654;52.216;5.616;2023-05-10T00:23:39;100605.81;;;12.31;98.08
71805;BME280;59654;52.216;5.616;2023-05-10T00:24:10;100602.16;;;12.34;97.82
71805;BME280;59654;52.216;5.616;2023-05-10T00:24:40;100603.94;;;12.33;98.24
71805;BME280;59654;52.216;5.616;2023-05-10T00:25:11;100600.41;;;12.33;98.02
71805;BME280;59654;52.216;5.616;2023-05-10T00:25:42;100595.94;;;12.33;98.70
71805;BME280;59654;52.216;5.616;2023-05-10T00:26:13;100592.38;;;12.33;98.00
71805;BME280;59654;52.216;5.616;2023-05-10T00:26:47;100597.72;;;12.33;98.26
71805;BME280;59654;52.216;5.616;2023-05-10T00:27:18;100595.94;;;12.33;98.28
71805;BME280;59654;52.216;5.616;2023-05-10T00:27:49;100594.13;;;12.34;97.76
71805;BME280;59654;52.216;5.616;2023-05-10T00:28:20;100592.38;;;12.33;98.59
71805;BME280;59654;52.216;5.616;2023-05-10T00:28:51;100601.28;;;12.33;98.47
71805;BME280;59654;52.216;5.616;2023-05-10T00:29:22;100588.84;;;12.32;98.24
71805;BME280;59654;52.216;5.616;2023-05-10T00:29:53;100591.53;;;12.32;98.52
71805;BME280;59654;52.216;5.616;2023-05-10T00:30:24;100592.47;;;12.31;97.94
71805;BME280;59654;52.216;5.616;2023-05-10T00:30:55;100591.53;;;12.32;98.63
71805;BME280;59654;52.216;5.616;2023-05-10T00:31:26;100596.88;;;12.32;98.28
71805;BME280;59654;52.216;5.616;2023-05-10T00:31:57;100594.19;;;12.32;98.98
71805;BME280;59654;52.216;5.616;2023-05-10T00:32:28;100590.59;;;12.33;98.01
71805;BME280;59654;52.216;5.616;2023-05-10T00:32:59;100592.47;;;12.31;97.78
71805;BME280;59654;52.216;5.616;2023-05-10T00:33:30;100594.25;;;12.31;98.73
71805;BME280;59654;52.216;5.616;2023-05-10T00:34:01;100588.91;;;12.31;98.03
71805;BME280;59654;52.216;5.616;2023-05-10T00:34:32;100596.94;;;12.31;98.68
71805;BME280;59654;52.216;5.616;2023-05-10T00:35:03;100593.41;;;12.30;98.09
71805;BME280;59654;52.216;5.616;2023-05-10T00:35:34;100590.72;;;12.30;98.05
71805;BME280;59654;52.216;5.616;2023-05-10T00:36:05;100590.66;;;12.32;98.54
71805;BME280;59654;52.216;5.616;2023-05-10T00:36:38;100593.31;;;12.32;98.23
71805;BME280;59654;52.216;5.616;2023-05-10T00:37:08;100589.78;;;12.31;97.96
71805;BME280;59654;52.216;5.616;2023-05-10T00:37:39;100587.13;;;12.31;98.57
71805;BME280;59654;52.216;5.616;2023-05-10T00:38:10;100586.25;;;12.31;97.80
71805;BME280;59654;52.216;5.616;2023-05-10T00:38:41;100591.53;;;12.32;97.89
71805;BME280;59654;52.216;5.616;2023-05-10T00:39:12;100590.66;;;12.32;98.20
71805;BME280;59654;52.216;5.616;2023-05-10T00:39:43;100587.97;;;12.32;97.72
71805;BME280;59654;52.216;5.616;2023-05-10T00:40:15;100587.97;;;12.32;98.15
71805;BME280;59654;52.216;5.616;2023-05-10T00:40:50;100586.19;;;12.32;98.12
71805;BME280;59654;52.216;5.616;2023-05-10T00:41:29;100593.25;;;12.33;98.08
71805;BME280;59654;52.216;5.616;2023-05-10T00:42:04;100585.22;;;12.33;97.85
71805;BME280;59654;52.216;5.616;2023-05-10T00:42:35;100590.59;;;12.33;97.82
71805;BME280;59654;52.216;5.616;2023-05-10T00:43:06;100587.91;;;12.33;97.98
71805;BME280;59654;52.216;5.616;2023-05-10T00:43:37;100589.78;;;12.31;97.55
71805;BME280;59654;52.216;5.616;2023-05-10T00:44:08;100589.78;;;12.31;97.62
71805;BME280;59654;52.216;5.616;2023-05-10T00:44:38;100588.06;;;12.30;97.56
71805;BME280;59654;52.216;5.616;2023-05-10T00:45:10;100586.31;;;12.29;98.09
71805;BME280;59654;52.216;5.616;2023-05-10T00:45:41;100586.31;;;12.29;97.90
71805;BME280;59654;52.216;5.616;2023-05-10T00:46:14;100590.78;;;12.29;98.08
71805;BME280;59654;52.216;5.616;2023-05-10T00:46:47;100593.41;;;12.30;97.58
71805;BME280;59654;52.216;5.616;2023-05-10T00:47:19;100597.00;;;12.29;98.16
71805;BME280;59654;52.216;5.616;2023-05-10T00:47:51;100590.78;;;12.29;98.55
71805;BME280;59654;52.216;5.616;2023-05-10T00:48:25;100587.19;;;12.30;98.86
71805;BME280;59654;52.216;5.616;2023-05-10T00:48:56;100589.00;;;12.29;98.10
71805;BME280;59654;52.216;5.616;2023-05-10T00:49:28;100586.38;;;12.28;98.62
71805;BME280;59654;52.216;5.616;2023-05-10T00:50:00;100584.59;;;12.28;98.74
71805;BME280;59654;52.216;5.616;2023-05-10T00:50:32;100586.31;;;12.29;98.12
71805;BME280;59654;52.216;5.616;2023-05-10T00:51:04;100589.84;;;12.30;98.78
71805;BME280;59654;52.216;5.616;2023-05-10T00:51:36;100586.31;;;12.29;98.44
71805;BME280;59654;52.216;5.616;2023-05-10T00:52:08;100591.66;;;12.29;98.33
71805;BME280;59654;52.216;5.616;2023-05-10T00:52:40;100581.91;;;12.28;98.17
71805;BME280;59654;52.216;5.616;2023-05-10T00:53:12;100587.25;;;12.28;98.77
71805;BME280;59654;52.216;5.616;2023-05-10T00:53:44;100587.25;;;12.28;98.46
71805;BME280;59654;52.216;5.616;2023-05-10T00:54:16;100592.53;;;12.30;98.64
71805;BME280;59654;52.216;5.616;2023-05-10T00:54:47;100586.31;;;12.29;98.43
71805;BME280;59654;52.216;5.616;2023-05-10T00:55:18;100588.13;;;12.29;98.87
71805;BME280;59654;52.216;5.616;2023-05-10T00:55:49;100585.44;;;12.29;98.39
71805;BME280;59654;52.216;5.616;2023-05-10T00:56:21;100590.78;;;12.29;98.94
71805;BME280;59654;52.216;5.616;2023-05-10T00:56:55;100585.44;;;12.29;98.89
71805;BME280;59654;52.216;5.616;2023-05-10T00:57:27;100589.84;;;12.30;99.05
71805;BME280;59654;52.216;5.616;2023-05-10T00:57:58;100596.06;;;12.30;98.95
71805;BME280;59654;52.216;5.616;2023-05-10T00:58:29;100592.53;;;12.30;98.42
71805;BME280;59654;52.216;5.616;2023-05-10T00:59:01;100594.25;;;12.31;98.28
71805;BME280;59654;52.216;5.616;2023-05-10T00:59:32;100590.72;;;12.30;98.72
71805;BME280;59654;52.216;5.616;2023-05-10T01:00:04;100589.84;;;12.30;98.46
71805;BME280;59654;52.216;5.616;2023-05-10T01:00:37;100591.66;;;12.29;98.34
71805;BME280;59654;52.216;5.616;2023-05-10T01:01:09;100588.06;;;12.30;98.59
71805;BME280;59654;52.216;5.616;2023-05-10T01:01:41;100599.53;;;12.32;98.54
71805;BME280;59654;52.216;5.616;2023-05-10T01:02:12;100587.97;;;12.32;98.59
71805;BME280;59654;52.216;5.616;2023-05-10T01:02:45;100595.06;;;12.33;98.12
71805;BME280;59654;52.216;5.616;2023-05-10T01:03:16;100594.19;;;12.32;98.53
71805;BME280;59654;52.216;5.616;2023-05-10T01:03:48;100590.66;;;12.32;97.54
71805;BME280;59654;52.216;5.616;2023-05-10T01:04:20;100588.84;;;12.32;97.70
71805;BME280;59654;52.216;5.616;2023-05-10T01:04:55;100589.78;;;12.31;98.40
71805;BME280;59654;52.216;5.616;2023-05-10T01:05:27;100590.66;;;12.32;98.03
71805;BME280;59654;52.216;5.616;2023-05-10T01:05:59;100595.13;;;12.31;98.18
71805;BME280;59654;52.216;5.616;2023-05-10T01:06:30;100593.41;;;12.30;98.23
71805;BME280;59654;52.216;5.616;2023-05-10T01:07:01;100589.78;;;12.31;98.15
71805;BME280;59654;52.216;5.616;2023-05-10T01:07:32;100591.53;;;12.32;98.33
71805;BME280;59654;52.216;5.616;2023-05-10T01:08:03;100591.66;;;12.29;98.37
71805;BME280;59654;52.216;5.616;2023-05-10T01:08:34;100581.84;;;12.30;98.31
71805;BME280;59654;52.216;5.616;2023-05-10T01:09:05;100588.06;;;12.30;98.74
71805;BME280;59654;52.216;5.616;2023-05-10T01:09:37;100585.38;;;12.30;97.99
71805;BME280;59654;52.216;5.616;2023-05-10T01:10:08;100586.25;;;12.31;98.80
71805;BME280;59654;52.216;5.616;2023-05-10T01:10:42;100590.72;;;12.30;98.59
71805;BME280;59654;52.216;5.616;2023-05-10T01:11:14;100587.13;;;12.31;98.00
71805;BME280;59654;52.216;5.616;2023-05-10T01:11:45;100589.78;;;12.31;98.30
71805;BME280;59654;52.216;5.616;2023-05-10T01:12:15;100588.91;;;12.31;97.70
71805;BME280;59654;52.216;5.616;2023-05-10T01:12:47;100584.44;;;12.31;98.07
71805;BME280;59654;52.216;5.616;2023-05-10T01:14:08;100583.56;;;12.31;98.26
71805;BME280;59654;52.216;5.616;2023-05-10T01:14:40;100580.03;;;12.30;98.35
71805;BME280;59654;52.216;5.616;2023-05-10T01:15:13;100590.72;;;12.30;98.20
71805;BME280;59654;52.216;5.616;2023-05-10T01:15:46;100580.91;;;12.31;97.84
71805;BME280;59654;52.216;5.616;2023-05-10T01:16:17;100588.91;;;12.31;98.19
71805;BME280;59654;52.216;5.616;2023-05-10T01:16:49;100588.91;;;12.31;97.04
71805;BME280;59654;52.216;5.616;2023-05-10T01:17:22;100582.72;;;12.30;98.09
71805;BME280;59654;52.216;5.616;2023-05-10T01:17:53;100588.06;;;12.30;97.56
71805;BME280;59654;52.216;5.616;2023-05-10T01:18:26;100590.72;;;12.30;97.78
71805;BME280;59654;52.216;5.616;2023-05-10T01:18:58;100587.19;;;12.30;98.26
71805;BME280;59654;52.216;5.616;2023-05-10T01:19:31;100586.19;;;12.32;98.44
71805;BME280;59654;52.216;5.616;2023-05-10T01:20:06;100595.13;;;12.31;98.43
71805;BME280;59654;52.216;5.616;2023-05-10T01:20:43;100586.25;;;12.31;98.17
71805;BME280;59654;52.216;5.616;2023-05-10T01:21:47;100593.41;;;12.30;97.79
71805;BME280;59654;52.216;5.616;2023-05-10T01:23:16;100595.22;;;12.30;98.49
71805;BME280;59654;52.216;5.616;2023-05-10T01:25:17;100591.66;;;12.29;98.53
71805;BME280;59654;52.216;5.616;2023-05-10T01:26:24;100594.34;;;12.29;99.03
71805;BME280;59654;52.216;5.616;2023-05-10T01:27:26;100591.81;;;12.26;98.28
71805;BME280;59654;52.216;5.616;2023-05-10T01:33:19;100596.41;;;12.24;99.30
71805;BME280;59654;52.216;5.616;2023-05-10T01:34:16;100588.53;;;12.21;98.44
71805;BME280;59654;52.216;5.616;2023-05-10T01:35:15;100592.94;;;12.22;98.60
71805;BME280;59654;52.216;5.616;2023-05-10T01:36:03;100590.19;;;12.24;98.72
71805;BME280;59654;52.216;5.616;2023-05-10T01:36:51;100605.34;;;12.23;99.15
71805;BME280;59654;52.216;5.616;2023-05-10T01:39:25;100594.66;;;12.23;98.86
71805;BME280;59654;52.216;5.616;2023-05-10T01:40:28;100599.94;;;12.25;98.72
71805;BME280;59654;52.216;5.616;2023-05-10T01:41:16;100600.88;;;12.24;98.99
71805;BME280;59654;52.216;5.616;2023-05-10T01:42:08;100597.16;;;12.26;98.70
71805;BME280;59654;52.216;5.616;2023-05-10T01:42:53;100593.78;;;12.23;98.38
71805;BME280;59654;52.216;5.616;2023-05-10T01:43:37;100603.63;;;12.22;98.97
71805;BME280;59654;52.216;5.616;2023-05-10T01:46:36;100600.00;;;12.23;99.41
71805;BME280;59654;52.216;5.616;2023-05-10T01:47:15;100600.00;;;12.23;99.27
71805;BME280;59654;52.216;5.616;2023-05-10T01:47:58;100596.47;;;12.23;99.78
71805;BME280;59654;52.216;5.616;2023-05-10T01:48:53;100593.88;;;12.21;98.70
71805;BME280;59654;52.216;5.616;2023-05-10T01:49:31;100594.72;;;12.22;99.28
71805;BME280;59654;52.216;5.616;2023-05-10T01:50:11;100594.66;;;12.23;98.85
71805;BME280;59654;52.216;5.616;2023-05-10T01:50:48;100596.41;;;12.24;98.65
71805;BME280;59654;52.216;5.616;2023-05-10T01:51:24;100592.00;;;12.23;98.69
71805;BME280;59654;52.216;5.616;2023-05-10T01:52:06;100592.06;;;12.22;99.10
71805;BME280;59654;52.216;5.616;2023-05-10T01:52:50;100592.94;;;12.22;99.23
71805;BME280;59654;52.216;5.616;2023-05-10T01:53:27;100598.34;;;12.21;98.80
71805;BME280;59654;52.216;5.616;2023-05-10T01:54:02;100594.72;;;12.22;99.48
71805;BME280;59654;52.216;5.616;2023-05-10T01:54:35;100600.94;;;12.22;99.47
71805;BME280;59654;52.216;5.616;2023-05-10T01:55:14;100593.78;;;12.23;99.22
71805;BME280;59654;52.216;5.616;2023-05-10T01:55:50;100596.53;;;12.21;98.77
71805;BME280;59654;52.216;5.616;2023-05-10T01:56:26;100597.34;;;12.23;99.23
71805;BME280;59654;52.216;5.616;2023-05-10T01:57:05;100594.81;;;12.20;98.90
71805;BME280;59654;52.216;5.616;2023-05-10T01:57:43;100596.53;;;12.21;99.07
71805;BME280;59654;52.216;5.616;2023-05-10T01:58:21;100590.31;;;12.21;98.90
71805;BME280;59654;52.216;5.616;2023-05-10T01:58:56;100598.34;;;12.21;99.26
71805;BME280;59654;52.216;5.616;2023-05-10T01:59:33;100595.75;;;12.19;99.10
71805;BME280;59654;52.216;5.616;2023-05-10T02:00:13;100598.56;;;12.16;98.76
71805;BME280;59654;52.216;5.616;2023-05-10T02:00:47;100598.63;;;12.15;99.44
71805;BME280;59654;52.216;5.616;2023-05-10T02:01:21;100599.50;;;12.15;98.90
71805;BME280;59654;52.216;5.616;2023-05-10T02:01:54;100600.38;;;12.16;98.96
71805;BME280;59654;52.216;5.616;2023-05-10T02:02:31;100595.88;;;12.16;99.41
71805;BME280;59654;52.216;5.616;2023-05-10T02:03:08;100603.19;;;12.13;99.06
71805;BME280;59654;52.216;5.616;2023-05-10T02:03:43;100604.06;;;12.13;99.50
71805;BME280;59654;52.216;5.616;2023-05-10T02:04:17;100598.78;;;12.12;99.56
71805;BME280;59654;52.216;5.616;2023-05-10T02:04:53;100595.16;;;12.13;99.11
71805;BME280;59654;52.216;5.616;2023-05-10T02:05:28;100601.38;;;12.13;99.01
71805;BME280;59654;52.216;5.616;2023-05-10T02:06:01;100600.44;;;12.14;99.21
71805;BME280;59654;52.216;5.616;2023-05-10T02:06:34;100597.69;;;12.16;99.05
71805;BME280;59654;52.216;5.616;2023-05-10T02:07:08;100598.56;;;12.16;99.09
71805;BME280;59654;52.216;5.616;2023-05-10T02:07:41;100600.38;;;12.16;99.15
71805;BME280;59654;52.216;5.616;2023-05-10T02:08:15;100596.81;;;12.15;99.59
71805;BME280;59654;52.216;5.616;2023-05-10T02:08:47;100602.97;;;12.17;99.26
71805;BME280;59654;52.216;5.616;2023-05-10T02:09:21;100595.88;;;12.16;99.66
71805;BME280;59654;52.216;5.616;2023-05-10T02:09:55;100603.09;;;12.14;99.52
71805;BME280;59654;52.216;5.616;2023-05-10T02:10:27;100599.50;;;12.15;99.67
71805;BME280;59654;52.216;5.616;2023-05-10T02:11:00;100603.09;;;12.14;98.98
71805;BME280;59654;52.216;5.616;2023-05-10T02:11:33;100603.03;;;12.16;99.72
71805;BME280;59654;52.216;5.616;2023-05-10T02:12:06;100605.78;;;12.14;99.50
71805;BME280;59654;52.216;5.616;2023-05-10T02:12:43;100598.63;;;12.15;99.53
71805;BME280;59654;52.216;5.616;2023-05-10T02:13:18;100598.56;;;12.16;99.23
71805;BME280;59654;52.216;5.616;2023-05-10T02:13:52;100604.78;;;12.17;99.19
71805;BME280;59654;52.216;5.616;2023-05-10T02:14:32;100609.47;;;12.12;98.77
71805;BME280;59654;52.216;5.616;2023-05-10T02:15:08;100603.25;;;12.11;99.65
71805;BME280;59654;52.216;5.616;2023-05-10T02:15:41;100602.38;;;12.11;99.35
71805;BME280;59654;52.216;5.616;2023-05-10T02:16:16;100611.38;;;12.10;99.57
71805;BME280;59654;52.216;5.616;2023-05-10T02:16:51;100603.34;;;12.10;99.37
71805;BME280;59654;52.216;5.616;2023-05-10T02:17:25;100606.88;;;12.10;99.78
71805;BME280;59654;52.216;5.616;2023-05-10T02:17:59;100606.88;;;12.10;99.63
71805;BME280;59654;52.216;5.616;2023-05-10T02:18:33;100606.78;;;12.12;99.45
71805;BME280;59654;52.216;5.616;2023-05-10T02:19:07;100606.72;;;12.13;99.71
71805;BME280;59654;52.216;5.616;2023-05-10T02:19:41;100607.59;;;12.14;99.15
71805;BME280;59654;52.216;5.616;2023-05-10T02:20:16;100603.91;;;12.16;99.83
71805;BME280;59654;52.216;5.616;2023-05-10T02:20:47;100604.84;;;12.15;99.04
71805;BME280;59654;52.216;5.616;2023-05-10T02:21:21;100607.44;;;12.17;99.15
71805;BME280;59654;52.216;5.616;2023-05-10T02:21:55;100609.19;;;12.18;98.93
71805;BME280;59654;52.216;5.616;2023-05-10T02:22:27;100610.13;;;12.17;99.26
71805;BME280;59654;52.216;5.616;2023-05-10T02:23:00;100611.06;;;12.16;99.55
71805;BME280;59654;52.216;5.616;2023-05-10T02:23:34;100607.53;;;12.15;99.05
71805;BME280;59654;52.216;5.616;2023-05-10T02:24:08;100611.13;;;12.14;98.89
71805;BME280;59654;52.216;5.616;2023-05-10T02:24:43;100608.47;;;12.14;98.81
71805;BME280;59654;52.216;5.616;2023-05-10T02:25:18;100614.66;;;12.15;100.00
71805;BME280;59654;52.216;5.616;2023-05-10T02:25:52;100612.00;;;12.15;98.97
71805;BME280;59654;52.216;5.616;2023-05-10T02:26:26;100607.59;;;12.14;99.41
71805;BME280;59654;52.216;5.616;2023-05-10T02:27:00;100615.53;;;12.15;99.83
71805;BME280;59654;52.216;5.616;2023-05-10T02:27:33;100613.81;;;12.14;99.52
71805;BME280;59654;52.216;5.616;2023-05-10T02:28:06;100612.88;;;12.15;99.26
71805;BME280;59654;52.216;5.616;2023-05-10T02:28:40;100613.72;;;12.16;99.66
71805;BME280;59654;52.216;5.616;2023-05-10T02:29:14;100618.22;;;12.15;99.04
71805;BME280;59654;52.216;5.616;2023-05-10T02:29:47;100611.06;;;12.16;99.25
71805;BME280;59654;52.216;5.616;2023-05-10T02:30:22;100616.41;;;12.16;99.63
71805;BME280;59654;52.216;5.616;2023-05-10T02:30:56;100612.78;;;12.17;99.60
71805;BME280;59654;52.216;5.616;2023-05-10T02:31:27;100610.91;;;12.19;99.54
71805;BME280;59654;52.216;5.616;2023-05-10T02:32:00;100615.41;;;12.18;99.22
71805;BME280;59654;52.216;5.616;2023-05-10T02:32:31;100614.47;;;12.19;99.07
71805;BME280;59654;52.216;5.616;2023-05-10T02:33:05;100605.56;;;12.19;98.97
71805;BME280;59654;52.216;5.616;2023-05-10T02:33:38;100616.25;;;12.19;99.50
71805;BME280;59654;52.216;5.616;2023-05-10T02:34:11;100612.66;;;12.20;98.92
71805;BME280;59654;52.216;5.616;2023-05-10T02:34:44;100612.59;;;12.21;99.11
71805;BME280;59654;52.216;5.616;2023-05-10T02:35:22;100620.59;;;12.21;99.06
71805;BME280;59654;52.216;5.616;2023-05-10T02:35:55;100616.19;;;12.20;99.42
71805;BME280;59654;52.216;5.616;2023-05-10T02:36:28;100617.00;;;12.22;98.93
71805;BME280;59654;52.216;5.616;2023-05-10T02:37:02;100614.38;;;12.21;98.96
71805;BME280;59654;52.216;5.616;2023-05-10T02:37:36;100611.72;;;12.21;99.04
71805;BME280;59654;52.216;5.616;2023-05-10T02:38:09;100610.91;;;12.19;98.75
71805;BME280;59654;52.216;5.616;2023-05-10T02:38:44;100611.78;;;12.19;99.35
71805;BME280;59654;52.216;5.616;2023-05-10T02:39:19;100620.75;;;12.18;99.12
71805;BME280;59654;52.216;5.616;2023-05-10T02:39:54;100617.13;;;12.19;99.22
71805;BME280;59654;52.216;5.616;2023-05-10T02:40:27;100615.31;;;12.20;99.10
71805;BME280;59654;52.216;5.616;2023-05-10T02:41:01;100615.59;;;12.14;98.91
71805;BME280;59654;52.216;5.616;2023-05-10T02:41:32;100612.94;;;12.14;98.95
71805;BME280;59654;52.216;5.616;2023-05-10T02:42:05;100616.47;;;12.14;99.42
71805;BME280;59654;52.216;5.616;2023-05-10T02:42:38;100615.53;;;12.15;99.61
71805;BME280;59654;52.216;5.616;2023-05-10T02:43:15;100619.06;;;12.16;99.72
71805;BME280;59654;52.216;5.616;2023-05-10T02:43:50;100620.88;;;12.15;99.45
71805;BME280;59654;52.216;5.616;2023-05-10T02:44:27;100623.47;;;12.17;99.18
71805;BME280;59654;52.216;5.616;2023-05-10T02:45:07;100624.34;;;12.17;99.24
71805;BME280;59654;52.216;5.616;2023-05-10T02:45:43;100619.94;;;12.16;99.22
71805;BME280;59654;52.216;5.616;2023-05-10T02:46:18;100619.00;;;12.17;99.13
71805;BME280;59654;52.216;5.616;2023-05-10T02:46:49;100612.78;;;12.17;99.12
71805;BME280;59654;52.216;5.616;2023-05-10T02:47:20;100617.19;;;12.18;98.78
71805;BME280;59654;52.216;5.616;2023-05-10T02:47:52;100616.34;;;12.17;99.43
71805;BME280;59654;52.216;5.616;2023-05-10T02:48:25;100623.34;;;12.20;98.68
71805;BME280;59654;52.216;5.616;2023-05-10T02:48:56;100618.78;;;12.22;98.94
71805;BME280;59654;52.216;5.616;2023-05-10T02:49:26;100621.47;;;12.22;98.74
71805;BME280;59654;52.216;5.616;2023-05-10T02:49:58;100616.13;;;12.22;98.76
71805;BME280;59654;52.216;5.616;2023-05-10T02:50:30;100624.94;;;12.24;98.89
71805;BME280;59654;52.216;5.616;2023-05-10T02:51:05;100619.50;;;12.25;99.18
71805;BME280;59654;52.216;5.616;2023-05-10T02:51:44;100624.00;;;12.25;98.42
71805;BME280;59654;52.216;5.616;2023-05-10T02:52:24;100624.88;;;12.25;99.35
71805;BME280;59654;52.216;5.616;2023-05-10T02:53:01;100624.75;;;12.27;98.55
71805;BME280;59654;52.216;5.616;2023-05-10T02:53:40;100620.28;;;12.27;98.85
71805;BME280;59654;52.216;5.616;2023-05-10T02:54:21;100623.81;;;12.28;98.72
71805;BME280;59654;52.216;5.616;2023-05-10T02:55:00;100623.81;;;12.28;98.41
71805;BME280;59654;52.216;5.616;2023-05-10T02:55:37;100617.53;;;12.29;98.64
71805;BME280;59654;52.216;5.616;2023-05-10T02:56:23;100619.41;;;12.27;98.73
71805;BME280;59654;52.216;5.616;2023-05-10T02:57:00;100620.38;;;12.26;99.27
71805;BME280;59654;52.216;5.616;2023-05-10T02:57:41;100621.31;;;12.25;98.57
71805;BME280;59654;52.216;5.616;2023-05-10T02:58:14;100621.31;;;12.25;98.75
71805;BME280;59654;52.216;5.616;2023-05-10T02:58:45;100616.84;;;12.25;99.01
71805;BME280;59654;52.216;5.616;2023-05-10T02:59:16;100622.09;;;12.27;98.82
71805;BME280;59654;52.216;5.616;2023-05-10T02:59:47;100619.41;;;12.27;98.66
71805;BME280;59654;52.216;5.616;2023-05-10T03:00:19;100625.63;;;12.27;99.35
71805;BME280;59654;52.216;5.616;2023-05-10T03:00:49;100622.94;;;12.27;99.19
71805;BME280;59654;52.216;5.616;2023-05-10T03:01:20;100623.81;;;12.28;98.70
71805;BME280;59654;52.216;5.616;2023-05-10T03:01:51;100625.63;;;12.27;98.98
71805;BME280;59654;52.216;5.616;2023-05-10T03:02:22;100616.75;;;12.27;99.19
71805;BME280;59654;52.216;5.616;2023-05-10T03:02:54;100613.13;;;12.28;98.14
71805;BME280;59654;52.216;5.616;2023-05-10T03:03:25;100619.34;;;12.28;98.31
71805;BME280;59654;52.216;5.616;2023-05-10T03:03:56;100617.53;;;12.29;98.92
71805;BME280;59654;52.216;5.616;2023-05-10T03:04:27;100619.28;;;12.30;98.69
71805;BME280;59654;52.216;5.616;2023-05-10T03:05:00;100621.94;;;12.30;98.80
71805;BME280;59654;52.216;5.616;2023-05-10T03:05:31;100615.66;;;12.31;98.53
71805;BME280;59654;52.216;5.616;2023-05-10T03:06:05;100616.53;;;12.31;98.91
71805;BME280;59654;52.216;5.616;2023-05-10T03:06:36;100616.53;;;12.31;98.71
71805;BME280;59654;52.216;5.616;2023-05-10T03:07:08;100622.72;;;12.32;98.16
71805;BME280;59654;52.216;5.616;2023-05-10T03:07:39;100615.59;;;12.32;98.89
71805;BME280;59654;52.216;5.616;2023-05-10T03:08:10;100615.66;;;12.31;98.13
71805;BME280;59654;52.216;5.616;2023-05-10T03:08:43;100621.88;;;12.31;98.35
71805;BME280;59654;52.216;5.616;2023-05-10T03:09:16;100619.13;;;12.33;98.34
71805;BME280;59654;52.216;5.616;2023-05-10T03:09:48;100620.94;;;12.32;98.37
71805;BME280;59654;52.216;5.616;2023-05-10T03:10:27;100620.06;;;12.32;98.37